Terminal Aerodrome Forecast
Issued by NWS

Current Version | Previous Version | Graphics & Text | Print | Product List | Glossary On
Versions: 1 2 3 4 5 6 7 8 9 10 11 12 13 14 15 16 17 18 19 20 21 22 23 24 25 26 27
000
FTUS41 KRLX 152332
TAFCKB
TAF
KCKB 152332Z 1600/1624 00000KT 4SM -RA OVC013
     FM160300 VRB03KT 4SM -RA OVC008
     FM160700 00000KT 4SM BR OVC005
     FM160800 00000KT 2SM BR OVC005
     FM161200 00000KT 4SM BR OVC006
     FM161700 00000KT P6SM OVC009=

USA.gov is the U.S. government's official web portal to all federal, state and local government web resources and services.